Time;durP1;ratioP1;P1;durP2;ratioP2;P2;SDS_P1;SDS_P2;PMS_P1;PMS_P2;Temp;Humidity;BMP_temperature;BMP_pressure;BME280_temperature;BME280_humidity;BME280_pressure;Samples;Min_cycle;Max_cycle;Signal;HPM_P1;HPM_P2
2024/04/08 00:01:04;;;;;;;5.82;2.08;;;;;;;13.12;99.36;92818.72;5387325;26;20035;-82
2024/04/08 00:03:29;;;;;;;7.40;1.67;;;;;;;13.15;98.04;92813.94;5378948;26;20001;-81
2024/04/08 00:05:57;;;;;;;9.48;2.25;;;;;;;13.16;95.97;92810.28;5385907;26;20062;-82
2024/04/08 00:08:23;;;;;;;3.50;1.60;;;;;;;13.17;96.53;92809.19;5383672;26;20439;-82
2024/04/08 00:10:49;;;;;;;4.45;2.10;;;;;;;13.17;95.38;92803.94;5395298;26;20330;-82
2024/04/08 00:13:14;;;;;;;7.55;1.88;;;;;;;13.25;85.40;92805.88;5387900;26;20000;-83
2024/04/08 00:15:40;;;;;;;7.72;1.95;;;;;;;13.35;84.08;92805.69;5384177;26;20004;-83
2024/04/08 00:18:05;;;;;;;6.18;1.83;;;;;;;13.44;81.98;92798.69;5378928;26;20090;-82
2024/04/08 00:20:31;;;;;;;6.03;2.10;;;;;;;13.45;84.74;92802.84;5384830;26;20043;-83
2024/04/08 00:22:57;;;;;;;3.40;1.70;;;;;;;13.39;89.49;92793.50;5352261;26;20011;-82
2024/04/08 00:25:22;;;;;;;4.68;1.60;;;;;;;13.32;90.44;92790.50;5385975;26;20065;-82
2024/04/08 00:27:48;;;;;;;9.73;2.10;;;;;;;13.23;91.07;92789.63;5382633;26;20012;-83
2024/04/08 00:30:14;;;;;;;6.50;1.83;;;;;;;13.15;92.09;92782.41;5393640;26;20557;-83
2024/04/08 00:32:39;;;;;;;5.10;1.77;;;;;;;13.11;90.53;92790.91;5386033;26;20008;-81
2024/04/08 00:35:05;;;;;;;7.90;1.67;;;;;;;13.07;92.21;92789.94;5398119;26;20359;-82
2024/04/08 00:37:31;;;;;;;4.85;1.90;;;;;;;13.05;92.86;92786.03;5383677;26;20004;-82
2024/04/08 00:39:57;;;;;;;4.57;1.80;;;;;;;13.02;92.69;92789.25;5387334;26;19996;-82
2024/04/08 00:42:22;;;;;;;11.55;2.00;;;;;;;13.00;91.74;92784.28;5391715;26;20004;-82
2024/04/08 00:44:48;;;;;;;4.55;1.85;;;;;;;12.98;91.71;92783.81;5384547;26;20126;-82
2024/04/08 00:47:14;;;;;;;8.18;1.90;;;;;;;12.94;92.20;92788.06;5383975;26;20008;-83
2024/04/08 00:49:41;;;;;;;5.22;1.70;;;;;;;12.93;91.11;92780.50;5398485;26;20015;-82
2024/04/08 00:52:12;;;;;;;5.43;1.77;;;;;;;12.90;92.02;92774.75;5389075;26;20019;-82
2024/04/08 00:54:39;;;;;;;6.80;2.22;;;;;;;12.89;92.08;92772.41;5382889;26;20004;-83
2024/04/08 00:57:07;;;;;;;5.80;1.73;;;;;;;12.86;92.80;92779.03;5400258;26;20136;-82
2024/04/08 00:59:33;;;;;;;5.15;1.80;;;;;;;12.86;92.90;92780.91;5383532;26;20012;-82
2024/04/08 01:02:01;;;;;;;7.40;1.88;;;;;;;12.82;93.94;92780.69;5388126;26;20004;-82
2024/04/08 01:04:31;;;;;;;5.38;1.67;;;;;;;12.78;94.51;92776.31;5398716;26;20076;-83
2024/04/08 01:06:58;;;;;;;7.45;1.98;;;;;;;12.77;94.46;92777.41;5382615;26;20019;-83
2024/04/08 01:09:23;;;;;;;6.20;1.85;;;;;;;12.71;95.01;92768.81;5383330;26;20000;-82
2024/04/08 01:11:49;;;;;;;4.45;1.70;;;;;;;12.68;94.90;92772.03;5380603;26;20004;-82
2024/04/08 01:14:14;;;;;;;6.55;2.50;;;;;;;12.67;95.83;92770.47;5374046;26;20008;-83
2024/04/08 01:16:40;;;;;;;10.10;1.95;;;;;;;12.64;95.83;92763.97;5396522;26;20003;-83
2024/04/08 01:19:06;;;;;;;7.10;1.73;;;;;;;12.61;96.70;92763.75;5385071;26;20040;-82
2024/04/08 01:21:32;;;;;;;6.80;2.20;;;;;;;12.58;96.87;92767.75;5401439;26;20013;-83
2024/04/08 01:23:58;;;;;;;7.25;2.00;;;;;;;12.55;95.57;92762.31;5389904;26;20004;-82
2024/04/08 01:26:24;;;;;;;8.38;2.00;;;;;;;12.53;94.15;92764.44;5384488;26;20004;-82
2024/04/08 01:28:50;;;;;;;6.47;2.00;;;;;;;12.51;94.18;92762.09;5382342;26;20573;-82
2024/04/08 01:31:16;;;;;;;6.60;2.10;;;;;;;12.48;93.89;92755.59;5390077;26;20467;-82
2024/04/08 01:33:42;;;;;;;6.43;1.90;;;;;;;12.46;94.89;92762.97;5386603;26;20012;-82
2024/04/08 01:36:09;;;;;;;6.55;2.22;;;;;;;12.44;95.20;92759.09;5368587;26;20046;-82
2024/04/08 01:38:39;;;;;;;6.05;1.80;;;;;;;12.41;96.35;92746.53;5380543;26;20004;-82
2024/04/08 01:41:05;;;;;;;6.53;2.30;;;;;;;12.36;96.35;92755.28;5390913;26;20372;-82
2024/04/08 01:43:30;;;;;;;6.03;1.80;;;;;;;12.37;96.28;92750.81;5389545;26;20012;-82
2024/04/08 01:45:56;;;;;;;11.93;2.00;;;;;;;12.36;97.52;92747.41;5381464;26;20000;-82
2024/04/08 01:48:22;;;;;;;8.38;2.55;;;;;;;12.34;99.93;92741.69;5387079;26;19996;-82
2024/04/08 01:50:48;;;;;;;6.10;2.00;;;;;;;12.32;100.00;92735.94;5382889;26;20000;-81
2024/04/08 01:53:13;;;;;;;4.65;2.30;;;;;;;12.34;100.00;92740.88;5384774;26;20894;-82
2024/04/08 01:55:39;;;;;;;8.23;2.20;;;;;;;12.34;100.00;92738.25;5380611;26;20479;-82
2024/04/08 01:58:05;;;;;;;8.40;2.30;;;;;;;12.31;100.00;92731.75;5386542;26;19996;-82
2024/04/08 02:00:30;;;;;;;4.05;2.08;;;;;;;12.30;100.00;92740.69;5405244;26;20010;-82
2024/04/08 02:02:56;;;;;;;5.40;2.08;;;;;;;12.27;100.00;92731.56;5387611;26;20459;-82
2024/04/08 02:05:22;;;;;;;8.10;2.17;;;;;;;12.25;100.00;92728.44;5391178;26;19992;-82
2024/04/08 02:07:50;;;;;;;8.35;2.08;;;;;;;12.26;100.00;92735.22;5389867;26;20097;-82
2024/04/08 02:10:19;;;;;;;9.00;2.28;;;;;;;12.24;100.00;92726.88;5362606;26;20003;-82
2024/04/08 02:12:47;;;;;;;6.10;2.00;;;;;;;12.25;100.00;92738.94;5384761;26;20019;-82
2024/04/08 02:15:13;;;;;;;4.18;2.10;;;;;;;12.27;100.00;92730.75;5353060;26;20015;-81
2024/04/08 02:17:39;;;;;;;4.95;2.10;;;;;;;12.27;100.00;92725.50;5382482;26;20008;-82
2024/04/08 02:20:06;;;;;;;7.00;2.53;;;;;;;12.28;100.00;92730.47;5385547;26;20015;-82
2024/04/08 02:22:32;;;;;;;11.82;2.05;;;;;;;12.28;100.00;92733.09;5405367;26;20015;-82
2024/04/08 02:24:58;;;;;;;6.40;1.90;;;;;;;12.26;100.00;92723.97;5381071;26;20000;-83
2024/04/08 02:27:24;;;;;;;7.43;2.30;;;;;;;12.24;100.00;92726.09;5390138;26;20041;-82
2024/04/08 02:29:51;;;;;;;4.70;2.05;;;;;;;12.22;100.00;92733.47;5400644;26;20004;-82
2024/04/08 02:32:16;;;;;;;9.27;2.13;;;;;;;12.19;100.00;92726.97;5402739;26;20003;-82
2024/04/08 02:34:42;;;;;;;6.95;2.22;;;;;;;12.12;100.00;92718.69;5387504;26;20018;-82
2024/04/08 02:37:08;;;;;;;3.92;2.00;;;;;;;12.10;100.00;92726.09;5368336;26;20015;-82
2024/04/08 02:39:33;;;;;;;6.82;2.55;;;;;;;12.06;100.00;92730.34;5395573;26;20010;-82
2024/04/08 02:42:05;;;;;;;5.05;2.10;;;;;;;11.98;100.00;92720.50;5388578;26;20329;-82
2024/04/08 02:44:30;;;;;;;3.65;1.90;;;;;;;11.98;100.00;92733.63;5419073;26;20078;-82
2024/04/08 02:46:56;;;;;;;4.70;2.10;;;;;;;11.95;100.00;92726.34;5397999;26;20007;-82
2024/04/08 02:49:22;;;;;;;8.85;2.28;;;;;;;11.94;100.00;92737.91;5383392;26;20007;-82
2024/04/08 02:51:47;;;;;;;5.63;2.25;;;;;;;11.91;100.00;92735.84;5383133;26;20056;-83
2024/04/08 02:54:13;;;;;;;4.55;2.33;;;;;;;11.86;100.00;92729.56;5382905;26;20007;-83
2024/04/08 02:56:38;;;;;;;5.50;2.47;;;;;;;11.83;100.00;92722.28;5396196;26;20625;-83
2024/04/08 02:59:04;;;;;;;6.78;2.40;;;;;;;11.80;100.00;92717.63;5400337;26;20072;-82
2024/04/08 03:01:30;;;;;;;5.38;2.20;;;;;;;11.79;100.00;92710.81;5406279;26;20514;-81
2024/04/08 03:03:56;;;;;;;7.78;2.65;;;;;;;11.77;100.00;92707.69;5383382;26;20046;-82
2024/04/08 03:06:22;;;;;;;4.53;2.00;;;;;;;11.76;100.00;92708.78;5390329;26;20069;-82
2024/04/08 03:08:47;;;;;;;4.75;1.90;;;;;;;11.76;100.00;92708.78;5356782;26;20001;-81
2024/04/08 03:11:13;;;;;;;6.55;2.10;;;;;;;11.76;100.00;92713.25;5383122;26;20006;-81
2024/04/08 03:13:40;;;;;;;6.38;2.20;;;;;;;11.75;100.00;92715.06;5397340;26;20008;-82
2024/04/08 03:16:06;;;;;;;6.72;2.30;;;;;;;11.75;100.00;92712.44;5387597;26;19995;-82
2024/04/08 03:18:31;;;;;;;8.65;2.30;;;;;;;11.75;100.00;92707.22;5391697;26;20007;-82
2024/04/08 03:21:04;;;;;;;6.20;2.40;;;;;;;11.77;100.00;92712.16;5381108;26;20002;-82
2024/04/08 03:23:30;;;;;;;8.68;2.25;;;;;;;11.78;100.00;92719.00;5379961;26;20000;-82
2024/04/08 03:26:00;;;;;;;5.97;2.35;;;;;;;11.76;100.00;92716.66;5410410;26;20003;-82
2024/04/08 03:28:27;;;;;;;7.03;2.17;;;;;;;11.74;100.00;92712.75;5391496;26;19996;-82
2024/04/08 03:30:52;;;;;;;4.68;2.20;;;;;;;11.77;100.00;92714.78;5403711;26;19995;-82
2024/04/08 03:33:20;;;;;;;4.93;2.17;;;;;;;11.76;100.00;92711.41;5403464;26;20006;-83
2024/04/08 03:35:47;;;;;;;6.03;2.03;;;;;;;11.76;100.00;92713.25;5431106;26;20071;-82
2024/04/08 03:38:14;;;;;;;7.18;2.50;;;;;;;11.74;100.00;92708.28;5415763;26;20381;-82
2024/04/08 03:40:39;;;;;;;6.22;2.13;;;;;;;11.72;100.00;92704.41;5387943;26;20347;-82
2024/04/08 03:43:06;;;;;;;7.95;2.22;;;;;;;11.69;100.00;92699.75;5413867;26;20011;-81
2024/04/08 03:45:32;;;;;;;6.60;2.00;;;;;;;11.69;100.00;92705.75;5411920;26;20033;-82
2024/04/08 03:47:58;;;;;;;4.60;1.80;;;;;;;11.66;100.00;92701.06;5386006;26;20043;-82
2024/04/08 03:50:29;;;;;;;7.38;2.05;;;;;;;11.60;100.00;92700.38;5391158;26;20032;-82
2024/04/08 03:52:55;;;;;;;5.80;2.30;;;;;;;11.61;100.00;92704.53;5379201;26;20012;-82
2024/04/08 03:55:26;;;;;;;4.85;2.00;;;;;;;11.59;100.00;92708.53;5389653;26;20007;-82
2024/04/08 03:57:52;;;;;;;3.53;2.00;;;;;;;11.56;100.00;92703.88;5382119;26;20008;-82
2024/04/08 04:00:23;;;;;;;5.55;1.90;;;;;;;11.56;100.00;92711.72;5380739;26;20463;-82
2024/04/08 04:02:51;;;;;;;4.97;2.00;;;;;;;11.54;100.00;92703.38;5393461;26;19999;-82
2024/04/08 04:05:17;;;;;;;5.60;2.00;;;;;;;11.53;100.00;92701.78;5382409;26;20007;-82
2024/04/08 04:07:43;;;;;;;7.30;2.00;;;;;;;11.52;100.00;92713.34;5398548;26;20000;-82
2024/04/08 04:10:09;;;;;;;4.70;1.88;;;;;;;11.45;100.00;92713.72;5426006;26;19996;-82
2024/04/08 04:12:38;;;;;;;6.85;1.88;;;;;;;11.43;100.00;92718.47;5417809;26;20043;-82
2024/04/08 04:15:05;;;;;;;5.65;2.40;;;;;;;11.41;100.00;92721.34;5399849;26;20046;-83
2024/04/08 04:17:31;;;;;;;7.82;2.00;;;;;;;11.40;100.00;92717.19;5407209;26;19999;-82
2024/04/08 04:19:56;;;;;;;4.75;1.90;;;;;;;11.37;100.00;92723.03;5400981;26;20044;-82
2024/04/08 04:22:22;;;;;;;4.10;1.92;;;;;;;11.36;100.00;92728.53;5384710;26;20008;-82
2024/04/08 04:24:48;;;;;;;8.45;2.00;;;;;;;11.32;100.00;92723.06;5399213;26;20084;-81
2024/04/08 04:27:13;;;;;;;7.05;2.08;;;;;;;11.32;100.00;92725.69;5392662;26;20199;-81
2024/04/08 04:29:39;;;;;;;4.78;1.90;;;;;;;11.30;100.00;92719.19;5401109;26;20000;-81
2024/04/08 04:32:05;;;;;;;6.95;2.10;;;;;;;11.28;100.00;92716.88;5441155;26;19995;-82
2024/04/08 04:34:31;;;;;;;5.93;1.90;;;;;;;11.24;100.00;92715.88;5394475;26;20017;-82
2024/04/08 04:36:57;;;;;;;5.65;1.98;;;;;;;11.21;100.00;92711.19;5425852;26;20078;-82
2024/04/08 04:39:23;;;;;;;5.10;1.98;;;;;;;11.20;100.00;92712.25;5394300;26;20045;-83
2024/04/08 04:41:53;;;;;;;7.28;2.33;;;;;;;11.21;100.00;92713.78;5417111;26;19999;-85
2024/04/08 04:44:20;;;;;;;3.97;1.95;;;;;;;11.16;100.00;92712.03;5393848;26;19995;-84
2024/04/08 04:46:45;;;;;;;10.68;1.92;;;;;;;11.19;100.00;92710.69;5446256;26;20050;-83
2024/04/08 04:49:12;;;;;;;10.13;2.00;;;;;;;11.16;100.00;92711.25;5394260;26;20008;-84
2024/04/08 04:51:38;;;;;;;7.65;2.00;;;;;;;11.13;100.00;92714.44;5396203;26;20002;-85
2024/04/08 04:54:04;;;;;;;5.40;1.73;;;;;;;11.08;100.00;92714.50;5419452;26;20003;-86
2024/04/08 04:56:30;;;;;;;6.53;1.80;;;;;;;11.09;100.00;92713.47;5374639;26;20027;-85
2024/04/08 04:58:56;;;;;;;7.00;1.83;;;;;;;11.08;100.00;92712.69;5366043;26;19999;-84
2024/04/08 05:01:21;;;;;;;4.88;1.70;;;;;;;11.05;100.00;92713.22;5348083;26;20311;-84
2024/04/08 05:03:52;;;;;;;6.38;1.90;;;;;;;11.06;100.00;92714.03;5377476;26;20008;-85
2024/04/08 05:06:18;;;;;;;3.65;1.60;;;;;;;11.09;100.00;92721.31;5416253;26;19997;-83
2024/04/08 05:08:49;;;;;;;8.13;1.92;;;;;;;11.07;100.00;92716.34;5403974;26;20013;-84
2024/04/08 05:11:14;;;;;;;6.93;1.80;;;;;;;11.13;100.00;92722.31;5410125;26;19999;-85
2024/04/08 05:13:40;;;;;;;6.70;1.98;;;;;;;11.16;100.00;92716.50;5426630;26;20452;-85
2024/04/08 05:16:06;;;;;;;5.30;1.90;;;;;;;11.18;100.00;92725.63;5403668;26;20004;-86
2024/04/08 05:18:33;;;;;;;5.20;1.83;;;;;;;11.19;100.00;92723.78;5387021;26;20010;-86
2024/04/08 05:20:59;;;;;;;7.13;1.92;;;;;;;11.23;100.00;92727.41;5417668;26;20012;-81
2024/04/08 05:23:26;;;;;;;7.97;1.83;;;;;;;11.31;100.00;92723.38;5419168;26;19996;-79
2024/04/08 05:25:55;;;;;;;6.38;1.83;;;;;;;11.41;98.71;92728.44;5419761;26;20064;-81
2024/04/08 05:28:22;;;;;;;7.80;1.92;;;;;;;11.51;98.50;92725.69;5417318;26;20014;-81
2024/04/08 05:30:48;;;;;;;5.93;1.75;;;;;;;11.64;98.25;92727.59;5420490;26;20031;-81
2024/04/08 05:33:15;;;;;;;5.00;1.92;;;;;;;11.76;97.83;92721.13;5421014;26;20014;-81
2024/04/08 05:35:41;;;;;;;5.28;1.83;;;;;;;11.84;97.20;92729.13;5420080;26;20014;-80
2024/04/08 05:38:08;;;;;;;6.90;1.80;;;;;;;11.97;96.19;92729.44;5417101;26;19996;-80
2024/04/08 05:40:35;;;;;;;8.82;1.90;;;;;;;12.12;94.05;92739.69;5417266;26;20336;-81
2024/04/08 05:43:01;;;;;;;8.05;1.95;;;;;;;12.25;92.84;92738.94;5415774;26;20006;-81
2024/04/08 05:45:27;;;;;;;5.95;2.25;;;;;;;12.40;91.13;92737.09;5391212;26;20000;-81
2024/04/08 05:47:55;;;;;;;6.30;2.08;;;;;;;12.58;89.21;92738.84;5381419;26;20007;-81
2024/04/08 05:50:21;;;;;;;6.78;1.92;;;;;;;12.71;88.04;92729.44;5379926;26;20011;-80
2024/04/08 05:52:46;;;;;;;7.60;2.40;;;;;;;12.92;87.36;92745.56;5381336;26;20077;-81
2024/04/08 05:55:12;;;;;;;16.67;2.97;;;;;;;13.08;87.25;92748.66;5389096;26;20071;-81
2024/04/08 05:57:40;;;;;;;10.38;2.30;;;;;;;13.24;88.38;92744.66;5415389;26;20405;-81
2024/04/08 06:00:07;;;;;;;9.70;2.13;;;;;;;13.43;89.95;92752.41;5419508;26;20006;-81
2024/04/08 06:02:33;;;;;;;7.65;2.10;;;;;;;13.63;91.98;92747.78;5420068;26;19999;-84
2024/04/08 06:04:58;;;;;;;12.88;2.08;;;;;;;13.86;91.12;92748.56;5421346;26;20335;-80
2024/04/08 06:07:24;;;;;;;4.50;1.85;;;;;;;14.08;91.55;92747.78;5417581;26;20069;-79
2024/04/08 06:09:50;;;;;;;9.90;1.90;;;;;;;14.46;77.73;92742.84;5420214;26;20012;-81
2024/04/08 06:12:18;;;;;;;8.07;2.10;;;;;;;14.71;79.63;92744.06;5420386;26;19999;-79
2024/04/08 06:14:45;;;;;;;6.82;2.08;;;;;;;15.15;84.47;92738.91;5421279;26;20011;-80
2024/04/08 06:17:10;;;;;;;4.25;2.05;;;;;;;15.91;87.36;92743.00;5422612;26;20068;-80
2024/04/08 06:19:36;;;;;;;6.57;1.80;;;;;;;16.63;79.83;92746.72;5394528;26;20000;-81
2024/04/08 06:22:02;;;;;;;4.70;1.77;;;;;;;17.30;75.15;92749.69;5386530;26;20011;-80
2024/04/08 06:24:27;;;;;;;7.22;2.05;;;;;;;17.86;62.64;92744.94;5387318;26;19996;-80
2024/04/08 06:26:53;;;;;;;8.23;1.88;;;;;;;18.19;67.94;92752.88;5385414;26;20000;-81
2024/04/08 06:29:19;;;;;;;9.82;2.15;;;;;;;18.77;68.14;92752.13;5381153;26;20011;-81
2024/04/08 06:31:45;;;;;;;4.22;1.77;;;;;;;19.31;58.56;92758.00;5381471;26;20006;-81
2024/04/08 06:34:11;;;;;;;5.25;1.90;;;;;;;19.04;57.55;92743.53;5381525;26;19996;-81
2024/04/08 06:36:37;;;;;;;12.88;2.50;;;;;;;18.94;59.99;92754.63;5381644;26;20448;-81
2024/04/08 06:39:03;;;;;;;8.70;1.90;;;;;;;19.18;59.11;92753.06;5379883;26;20021;-81
2024/04/08 06:41:28;;;;;;;9.85;2.20;;;;;;;19.29;57.70;92746.19;5383275;26;20004;-82
2024/04/08 06:43:54;;;;;;;6.13;1.80;;;;;;;19.54;54.90;92754.88;5350674;26;20000;-82
2024/04/08 06:46:20;;;;;;;6.97;2.13;;;;;;;19.93;52.58;92760.59;5351617;26;20372;-80
2024/04/08 06:48:46;;;;;;;6.78;2.08;;;;;;;20.35;48.40;92758.31;5384286;26;20054;-83
2024/04/08 06:51:11;;;;;;;5.82;1.95;;;;;;;20.95;48.68;92755.63;5379756;26;20078;-81
2024/04/08 06:53:37;;;;;;;7.68;2.38;;;;;;;21.56;51.15;92756.28;5381190;26;20000;-81
2024/04/08 06:56:04;;;;;;;8.65;2.00;;;;;;;22.17;47.29;92755.59;5380897;26;20467;-81
2024/04/08 06:58:30;;;;;;;6.35;1.98;;;;;;;22.53;45.14;92753.63;5351191;26;20526;-82
2024/04/08 07:00:56;;;;;;;11.13;2.10;;;;;;;22.10;48.40;92750.13;5381235;26;20067;-81
2024/04/08 07:03:22;;;;;;;6.18;2.00;;;;;;;22.21;50.88;92747.69;5379475;26;20012;-82
2024/04/08 07:05:48;;;;;;;5.40;1.95;;;;;;;22.32;47.78;92747.91;5377610;26;20031;-82
2024/04/08 07:08:16;;;;;;;7.78;2.28;;;;;;;21.74;45.48;92757.41;5377872;26;20015;-82
2024/04/08 07:10:44;;;;;;;7.00;2.65;;;;;;;21.39;48.89;92752.06;5377878;26;20015;-82
2024/04/08 07:13:10;;;;;;;8.00;2.00;;;;;;;21.42;50.90;92759.41;5380128;26;20015;-81
2024/04/08 07:15:36;;;;;;;6.05;2.00;;;;;;;21.65;49.46;92756.84;5376950;26;20086;-82
2024/04/08 07:18:03;;;;;;;8.15;2.00;;;;;;;21.55;47.17;92762.72;5379460;26;19992;-81
2024/04/08 07:20:30;;;;;;;5.88;1.90;;;;;;;21.35;50.30;92757.31;5414539;26;20471;-81
2024/04/08 07:22:57;;;;;;;4.38;1.70;;;;;;;21.07;50.39;92751.34;5413687;26;20003;-81
2024/04/08 07:25:23;;;;;;;6.75;2.33;;;;;;;21.44;55.43;92756.41;5417004;26;20027;-81
2024/04/08 07:27:49;;;;;;;6.90;1.90;;;;;;;21.93;53.22;92750.56;5399261;26;20015;-81
2024/04/08 07:30:15;;;;;;;5.18;1.70;;;;;;;22.44;48.22;92751.19;5401560;26;19999;-81
2024/04/08 07:32:40;;;;;;;6.70;1.88;;;;;;;22.19;47.30;92755.25;5387073;26;20004;-83
2024/04/08 07:35:06;;;;;;;9.18;2.38;;;;;;;21.61;49.92;92756.00;5379322;26;20015;-82
2024/04/08 07:37:32;;;;;;;8.80;2.97;;;;;;;21.21;52.64;92751.69;5380244;26;20015;-81
2024/04/08 07:39:58;;;;;;;6.35;2.03;;;;;;;20.87;53.90;92753.91;5380082;26;20004;-84
2024/04/08 07:42:24;;;;;;;9.43;2.30;;;;;;;20.57;56.15;92756.22;5377346;26;20011;-80
2024/04/08 07:44:51;;;;;;;6.55;2.22;;;;;;;20.33;55.16;92767.72;5338658;26;20009;-82
2024/04/08 07:47:16;;;;;;;11.68;2.38;;;;;;;20.01;58.44;92764.19;5350642;26;19996;-82
2024/04/08 07:49:45;;;;;;;8.68;3.22;;;;;;;20.14;58.47;92761.16;5362742;26;20073;-82
2024/04/08 07:52:11;;;;;;;8.82;2.00;;;;;;;20.25;54.67;92761.44;5343940;26;20037;-84
2024/04/08 07:54:38;;;;;;;7.38;2.20;;;;;;;20.23;56.57;92766.31;5355803;26;20246;-83
2024/04/08 07:57:04;;;;;;;7.32;2.20;;;;;;;20.63;58.99;92764.72;5282177;26;20001;-83
2024/04/08 07:59:30;;;;;;;7.45;2.10;;;;;;;21.01;58.00;92764.16;5355912;26;20017;-82
2024/04/08 08:01:55;;;;;;;4.82;2.10;;;;;;;21.08;53.91;92768.88;5355631;26;20008;-82
2024/04/08 08:04:21;;;;;;;5.72;2.20;;;;;;;21.12;53.85;92765.16;5344644;26;20004;-80
2024/04/08 08:06:47;;;;;;;6.63;2.72;;;;;;;20.88;54.99;92766.09;5349048;26;20550;-79
2024/04/08 08:09:13;;;;;;;4.45;2.10;;;;;;;20.49;57.81;92771.19;5357826;26;20009;-81
2024/04/08 08:11:38;;;;;;;5.80;1.90;;;;;;;20.31;57.02;92769.94;5310158;26;20440;-82
2024/04/08 08:14:04;;;;;;;5.35;1.80;;;;;;;20.34;58.21;92769.28;5343465;26;20001;-84
2024/04/08 08:16:30;;;;;;;6.65;1.80;;;;;;;20.53;57.80;92777.34;5351474;26;20016;-80
2024/04/08 08:18:55;;;;;;;7.18;2.00;;;;;;;20.69;55.81;92777.44;5338396;26;20472;-82
2024/04/08 08:21:21;;;;;;;5.05;2.08;;;;;;;20.48;54.80;92774.97;5328675;26;20445;-83
2024/04/08 08:23:47;;;;;;;5.32;2.00;;;;;;;20.44;54.53;92771.44;5349336;26;20000;-82
2024/04/08 08:26:13;;;;;;;3.45;1.85;;;;;;;20.15;53.13;92783.97;5361837;26;19997;-82
2024/04/08 08:28:38;;;;;;;4.43;1.95;;;;;;;20.10;56.01;92770.16;5367857;26;20041;-82
2024/04/08 08:31:04;;;;;;;10.63;2.30;;;;;;;20.23;54.96;92784.94;5359681;26;20099;-82
2024/04/08 08:33:30;;;;;;;6.72;2.38;;;;;;;20.33;56.14;92784.47;5345098;26;20012;-83
2024/04/08 08:35:56;;;;;;;5.30;1.98;;;;;;;20.16;54.59;92784.75;5357359;26;20005;-83
2024/04/08 08:38:22;;;;;;;6.57;2.42;;;;;;;20.17;56.52;92776.44;5312356;26;20060;-82
2024/04/08 08:41:00;;;;;;;9.07;2.88;;;;;;;20.65;59.31;92779.22;5343908;26;20063;-80
2024/04/08 08:43:30;;;;;;;6.32;1.95;;;;;;;20.68;56.04;92786.50;5354404;26;20008;-82
2024/04/08 08:45:56;;;;;;;6.22;1.90;;;;;;;20.71;58.51;92777.06;5360415;26;20012;-82
2024/04/08 08:48:22;;;;;;;4.00;1.60;;;;;;;20.84;55.51;92775.88;5342449;26;20043;-83
2024/04/08 08:50:48;;;;;;;4.93;1.90;;;;;;;21.01;54.44;92772.13;5342419;26;20011;-82
2024/04/08 08:53:15;;;;;;;7.45;2.40;;;;;;;20.46;53.30;92774.53;5362250;26;20013;-83
2024/04/08 08:55:42;;;;;;;8.38;2.00;;;;;;;20.39;45.03;92782.31;5346024;26;20005;-82
2024/04/08 08:58:10;;;;;;;6.93;2.22;;;;;;;20.33;52.70;92783.66;5355858;26;20001;-82
2024/04/08 09:00:40;;;;;;;6.50;2.13;;;;;;;20.16;50.76;92787.41;5328763;26;20048;-82
2024/04/08 09:03:12;;;;;;;7.72;2.30;;;;;;;20.43;49.59;92782.41;5361949;26;20618;-83
2024/04/08 09:05:38;;;;;;;6.10;2.05;;;;;;;20.62;52.19;92768.50;5347529;26;20006;-82
2024/04/08 09:08:05;;;;;;;6.70;2.50;;;;;;;20.58;54.93;92774.50;5347603;26;20004;-82
2024/04/08 09:10:47;;;;;;;6.45;1.90;;;;;;;20.56;57.80;92776.72;5315976;26;20004;-81
2024/04/08 09:13:25;;;;;;;8.35;2.28;;;;;;;20.44;58.76;92774.09;5349761;26;20012;-81
2024/04/08 09:15:51;;;;;;;7.47;2.20;;;;;;;20.04;61.89;92779.47;5350082;26;20001;-83
2024/04/08 09:18:18;;;;;;;5.63;2.15;;;;;;;20.10;58.75;92770.91;5329407;26;20369;-84
2024/04/08 09:20:44;;;;;;;7.03;2.17;;;;;;;20.06;62.66;92764.75;5383767;26;20475;-83
2024/04/08 09:23:11;;;;;;;18.15;5.38;;;;;;;20.20;57.82;92779.50;5381311;26;20007;-83
2024/04/08 09:25:37;;;;;;;5.10;1.90;;;;;;;20.09;55.93;92780.00;5334765;26;20015;-83
2024/04/08 09:28:03;;;;;;;8.90;2.20;;;;;;;20.19;56.77;92778.75;5385088;26;20012;-83
2024/04/08 09:30:29;;;;;;;4.32;2.13;;;;;;;20.27;58.71;92774.41;5358496;26;20015;-83
2024/04/08 09:32:55;;;;;;;11.52;2.30;;;;;;;20.54;56.05;92773.59;5347894;26;20005;-82
2024/04/08 09:35:21;;;;;;;9.52;2.30;;;;;;;20.48;58.53;92774.19;5349326;26;20074;-83
2024/04/08 09:37:53;;;;;;;6.57;2.38;;;;;;;20.85;57.02;92756.16;5350381;26;20009;-84
2024/04/08 09:40:20;;;;;;;;;;;;;;;20.90;53.57;92761.22;5351903;26;20004;-84
2024/04/08 09:42:46;;;;;;;9.80;2.90;;;;;;;20.95;56.10;92766.28;5366095;26;19925;-82
2024/04/08 09:45:13;;;;;;;5.85;2.30;;;;;;;20.83;54.30;92763.72;5361074;26;20016;-83
2024/04/08 09:47:39;;;;;;;6.80;1.88;;;;;;;20.88;52.40;92758.13;5364833;26;20012;-83
2024/04/08 09:50:05;;;;;;;6.47;1.90;;;;;;;21.00;52.56;92755.38;5383831;26;20000;-83
2024/04/08 09:52:31;;;;;;;6.85;2.08;;;;;;;21.32;51.47;92752.69;5363097;26;20011;-84
2024/04/08 09:54:57;;;;;;;5.18;1.98;;;;;;;21.22;54.15;92761.19;5351038;26;20542;-84
2024/04/08 09:57:27;;;;;;;5.38;2.08;;;;;;;20.97;56.21;92750.75;5344084;26;20469;-84
2024/04/08 09:59:56;;;;;;;9.80;2.00;;;;;;;21.20;54.52;92750.13;5368302;26;20445;-86
2024/04/08 10:02:39;;;;;;;6.80;2.20;;;;;;;20.69;55.12;92750.03;5348794;26;20045;-85
2024/04/08 10:05:05;;;;;;;9.90;2.55;;;;;;;20.94;55.30;92746.13;5357429;26;20079;-84
2024/04/08 10:07:35;;;;;;;12.20;2.17;;;;;;;21.07;52.33;92746.00;5349897;26;20334;-83
2024/04/08 10:10:02;;;;;;;6.70;2.15;;;;;;;20.87;51.22;92737.94;5346810;26;20008;-85
2024/04/08 10:12:35;;;;;;;9.75;2.30;;;;;;;20.95;50.85;92739.66;5365317;26;20070;-84
2024/04/08 10:15:11;;;;;;;7.22;1.80;;;;;;;21.12;53.65;92737.75;5351401;26;20324;-82
2024/04/08 10:17:37;;;;;;;5.43;1.95;;;;;;;21.40;53.94;92737.63;5350027;26;20349;-83
2024/04/08 10:20:07;;;;;;;6.25;2.20;;;;;;;21.85;52.16;92751.53;5349558;26;20038;-83
2024/04/08 10:22:35;;;;;;;6.22;2.22;;;;;;;21.81;48.78;92746.91;5363746;26;20046;-83
2024/04/08 10:25:01;;;;;;;4.25;1.90;;;;;;;21.92;44.27;92743.69;5322414;26;20005;-85
2024/04/08 10:27:26;;;;;;;7.07;2.20;;;;;;;22.09;41.99;92745.94;5372460;26;20071;-85
2024/04/08 10:29:56;;;;;;;4.70;1.88;;;;;;;22.08;38.85;92746.28;5349223;26;20008;-86
2024/04/08 10:32:22;;;;;;;5.20;2.03;;;;;;;22.31;40.70;92743.69;5358894;26;20348;-85
2024/04/08 10:34:48;;;;;;;5.72;1.95;;;;;;;22.42;39.57;92742.00;5347509;26;20016;-85
2024/04/08 10:37:14;;;;;;;7.85;2.30;;;;;;;22.39;38.32;92743.47;5360299;26;20017;-85
2024/04/08 10:39:39;;;;;;;4.60;1.98;;;;;;;22.52;37.70;92733.44;5339877;26;20001;-84
2024/04/08 10:42:15;;;;;;;7.75;2.10;;;;;;;22.83;39.53;92734.31;5347411;26;20013;-85
2024/04/08 10:44:41;;;;;;;5.50;2.20;;;;;;;23.05;38.72;92735.44;5354075;26;20048;-84
2024/04/08 10:47:08;;;;;;;4.85;2.10;;;;;;;22.92;37.60;92737.53;5356751;26;20074;-84
2024/04/08 10:49:35;;;;;;;5.20;2.50;;;;;;;22.71;38.26;92732.59;5357174;26;20039;-84
2024/04/08 10:52:01;;;;;;;5.85;2.08;;;;;;;22.60;40.72;92727.06;5360599;26;20015;-84
2024/04/08 10:54:27;;;;;;;7.45;2.13;;;;;;;22.49;44.15;92731.44;5348963;26;20020;-82
2024/04/08 10:56:54;;;;;;;7.00;2.30;;;;;;;22.46;42.61;92737.50;5364750;26;20445;-83
2024/04/08 10:59:20;;;;;;;8.73;2.40;;;;;;;22.31;42.89;92731.13;5341451;26;20356;-81
2024/04/08 11:01:45;;;;;;;4.72;1.98;;;;;;;22.09;44.68;92729.94;5326530;26;20006;-81
2024/04/08 11:04:12;;;;;;;4.75;2.20;;;;;;;22.14;44.52;92727.00;5357617;26;20016;-81
2024/04/08 11:06:38;;;;;;;3.97;2.00;;;;;;;22.31;45.23;92725.78;5343418;26;20024;-80
2024/04/08 11:09:05;;;;;;;7.13;2.17;;;;;;;22.19;41.63;92723.28;5342309;26;19997;-81
2024/04/08 11:11:32;;;;;;;6.20;2.40;;;;;;;22.22;41.30;92717.25;5344336;26;20012;-80
2024/04/08 11:13:58;;;;;;;3.53;1.92;;;;;;;22.47;42.68;92715.03;5342610;26;20012;-81
2024/04/08 11:16:23;;;;;;;6.72;1.95;;;;;;;22.31;40.26;92711.69;5367440;26;20000;-81
2024/04/08 11:18:50;;;;;;;5.28;2.22;;;;;;;22.38;40.00;92715.28;5380072;26;20491;-81
2024/04/08 11:21:16;;;;;;;6.88;2.40;;;;;;;22.53;40.81;92705.63;5379822;26;20004;-81
2024/04/08 11:23:42;;;;;;;3.80;1.95;;;;;;;22.64;43.18;92706.56;5378831;26;20448;-81
2024/04/08 11:26:08;;;;;;;6.45;2.35;;;;;;;22.40;38.51;92717.56;5379378;26;20015;-81
2024/04/08 11:28:36;;;;;;;4.10;2.00;;;;;;;22.41;41.39;92713.78;5379627;26;20054;-81